PWSweather.com
Personal Weather Stations
Station Observations
KCTCOLEB1
Sandy Brook, Colebrook, CT 06021

Sandy BrookColebrook, CT 06021

Lat: 42.0018, Lon: -73.0825

Elevation: 935

Station Type: Davis Vantage Pro2 + Solar + UV

Latest ConditionsUpdated 5:50:00 AM EDT Monday, Jul 23, 2018
Currently Today's Max Today's Min Today's Average
Temperature 71.9°F22.2°C 71.9°F22.2°C 70.6°F21.4°C 71.2°F21.8°C
Dew Point 71.3°F21.8°C 71.3°F21.8°C 69.7°F20.9°C 70.5°F21.4°C
Winds Calm Calm 1.2 mph -1.9 kmh - - 0.2 mph 0.3 kmh
Wind Gusts -- 3.5 mph5.6 kmh - -
Humidity 98% 98% 97% 98%
Pressure 30.07 in1018.3 mb 30.07 in1018.3 mb 30.04 in1017.3 mb -
Hour Temp Dew Point Humidity Winds Wind Gusts Pressure Precip Precip Rate Daily Precip Total
05:50 AM 71.9°F22.2°C 71.3°F21.8°C 98% Calm Calm -- 30.07 in1018.3 mb - 0.00 in0.0 mm 0.00 in0.0 mm
05:40 AM 71.9°F22.2°C 71.3°F21.8°C 98% Calm Calm 1.2 mph1.9 kmh 30.07 in1018.3 mb - 0.00 in0.0 mm 0.00 in0.0 mm
05:30 AM 71.8°F22.1°C 71.2°F21.8°C 98% Calm Calm -- 30.07 in1018.3 mb - 0.00 in0.0 mm 0.00 in0.0 mm
05:20 AM 71.8°F22.1°C 71.2°F21.8°C 98% Calm Calm -- 30.06 in1017.9 mb - 0.00 in0.0 mm 0.00 in0.0 mm
05:10 AM 71.8°F22.1°C 71.2°F21.8°C 98% Calm Calm -- 30.06 in1017.9 mb - 0.00 in0.0 mm 0.00 in0.0 mm
05:00 AM 71.7°F22.1°C 71.1°F21.7°C 98% 1.2 mph S1.9 kmh S 3.5 mph5.6 kmh 30.06 in1017.9 mb - 0.00 in0.0 mm 0.00 in0.0 mm
04:50 AM 71.7°F22.1°C 71.1°F21.7°C 98% Calm Calm -- 30.05 in1017.6 mb - 0.00 in0.0 mm 0.00 in0.0 mm
04:40 AM 71.7°F22.1°C 71.1°F21.7°C 98% Calm Calm -- 30.05 in1017.6 mb - 0.00 in0.0 mm 0.00 in0.0 mm
04:30 AM 71.7°F22.1°C 71.1°F21.7°C 98% Calm Calm -- 30.05 in1017.6 mb - 0.00 in0.0 mm 0.00 in0.0 mm
04:20 AM 71.7°F22.1°C 71.1°F21.7°C 98% Calm Calm -- 30.05 in1017.6 mb - 0.00 in0.0 mm 0.00 in0.0 mm
04:10 AM 71.6°F22.0°C 71.0°F21.7°C 98% Calm Calm 1.2 mph1.9 kmh 30.05 in1017.6 mb - 0.00 in0.0 mm 0.00 in0.0 mm
04:00 AM 71.6°F22.0°C 71.0°F21.7°C 98% Calm Calm 1.2 mph1.9 kmh 30.05 in1017.6 mb - 0.00 in0.0 mm 0.00 in0.0 mm
03:50 AM 71.4°F21.9°C 70.8°F21.6°C 98% Calm Calm -- 30.05 in1017.6 mb - 0.00 in0.0 mm 0.00 in0.0 mm
03:40 AM 71.4°F21.9°C 70.8°F21.6°C 98% Calm Calm 1.2 mph1.9 kmh 30.05 in1017.6 mb - 0.00 in0.0 mm 0.00 in0.0 mm
03:30 AM 71.3°F21.8°C 70.7°F21.5°C 98% Calm Calm -- 30.05 in1017.6 mb - 0.00 in0.0 mm 0.00 in0.0 mm
03:20 AM 71.2°F21.8°C 70.6°F21.4°C 98% Calm Calm -- 30.05 in1017.6 mb - 0.00 in0.0 mm 0.00 in0.0 mm
03:10 AM 71.2°F21.8°C 70.6°F21.4°C 98% Calm Calm -- 30.04 in1017.3 mb - 0.00 in0.0 mm 0.00 in0.0 mm
03:00 AM 71.1°F21.7°C 70.5°F21.4°C 98% Calm Calm -- 30.05 in1017.6 mb - 0.00 in0.0 mm 0.00 in0.0 mm
02:50 AM 71.1°F21.7°C 70.5°F21.4°C 98% Calm Calm -- 30.05 in1017.6 mb - 0.00 in0.0 mm 0.00 in0.0 mm
02:40 AM 71.0°F21.7°C 70.4°F21.3°C 98% Calm Calm 1.2 mph1.9 kmh 30.04 in1017.3 mb - 0.00 in0.0 mm 0.00 in0.0 mm
02:30 AM 70.9°F21.6°C 70.3°F21.3°C 98% Calm Calm 1.2 mph1.9 kmh 30.04 in1017.3 mb - 0.00 in0.0 mm 0.00 in0.0 mm
02:20 AM 70.9°F21.6°C 70.3°F21.3°C 98% 1.2 mph NE1.9 kmh NE 2.3 mph3.7 kmh 30.05 in1017.6 mb - 0.00 in0.0 mm 0.00 in0.0 mm
02:10 AM 70.8°F21.6°C 70.2°F21.2°C 98% 1.2 mph WNW1.9 kmh WNW 2.3 mph3.7 kmh 30.05 in1017.6 mb - 0.00 in0.0 mm 0.00 in0.0 mm
02:00 AM 70.7°F21.5°C 70.1°F21.2°C 98% Calm Calm -- 30.05 in1017.6 mb - 0.00 in0.0 mm 0.00 in0.0 mm
01:50 AM 70.6°F21.4°C 70.0°F21.1°C 98% Calm Calm 1.2 mph1.9 kmh 30.05 in1017.6 mb - 0.00 in0.0 mm 0.00 in0.0 mm
01:40 AM 70.7°F21.5°C 69.8°F21.0°C 97% Calm Calm -- 30.06 in1017.9 mb - 0.00 in0.0 mm 0.00 in0.0 mm
01:30 AM 70.7°F21.5°C 70.1°F21.2°C 98% 1.2 mph ENE1.9 kmh ENE 2.3 mph3.7 kmh 30.06 in1017.9 mb - 0.00 in0.0 mm 0.00 in0.0 mm
01:20 AM 70.6°F21.4°C 69.7°F20.9°C 97% Calm Calm -- 30.06 in1017.9 mb - 0.00 in0.0 mm 0.00 in0.0 mm
01:10 AM 70.7°F21.5°C 69.8°F21.0°C 97% Calm Calm 1.2 mph1.9 kmh 30.05 in1017.6 mb - 0.00 in0.0 mm 0.00 in0.0 mm
01:00 AM 70.8°F21.6°C 69.9°F21.1°C 97% Calm Calm 1.2 mph1.9 kmh 30.06 in1017.9 mb - 0.00 in0.0 mm 0.00 in0.0 mm
12:50 AM 70.8°F21.6°C 69.9°F21.1°C 97% Calm Calm 1.2 mph1.9 kmh 30.05 in1017.6 mb - 0.00 in0.0 mm 0.00 in0.0 mm
12:40 AM 70.8°F21.6°C 69.9°F21.1°C 97% Calm Calm -- 30.07 in1018.3 mb - 0.00 in0.0 mm 0.00 in0.0 mm
12:30 AM 71.0°F21.7°C 70.1°F21.2°C 97% Calm Calm 1.2 mph1.9 kmh 30.06 in1017.9 mb - 0.00 in0.0 mm 0.00 in0.0 mm
12:20 AM 71.0°F21.7°C 70.1°F21.2°C 97% Calm Calm 1.2 mph1.9 kmh 30.06 in1017.9 mb - 0.00 in0.0 mm 0.00 in0.0 mm
12:10 AM 70.9°F21.6°C 70.0°F21.1°C 97% Calm Calm 1.2 mph1.9 kmh 30.05 in1017.6 mb - 0.00 in0.0 mm 0.00 in0.0 mm
12:00 AM 70.9°F21.6°C 70.0°F21.1°C 97% 1.2 mph WNW1.9 kmh WNW 2.3 mph3.7 kmh 30.05 in1017.6 mb - 0.00 in0.0 mm 0.00 in0.0 mm